Time;durP1;ratioP1;P1;durP2;ratioP2;P2;SDS_P1;SDS_P2;PMS_P1;PMS_P2;Temp;Humidity;BMP_temperature;BMP_pressure;BME280_temperature;BME280_humidity;BME280_pressure;Samples;Min_cycle;Max_cycle;Signal;HPM_P1;HPM_P2
2022/09/16 00:01:22;;;;;;;5.38;1.10;;;;;;;10.82;88.40;100026.13;7396001;19;20018;-68
2022/09/16 00:03:50;;;;;;;1.65;0.80;;;;;;;10.82;88.22;100014.78;7395233;19;20022;-68
2022/09/16 00:06:21;;;;;;;2.88;0.88;;;;;;;10.81;88.25;100027.03;7395685;19;20022;-68
2022/09/16 00:08:50;;;;;;;4.50;0.80;;;;;;;10.81;88.54;100024.41;7394524;19;20027;-67
2022/09/16 00:11:22;;;;;;;3.85;0.82;;;;;;;10.81;88.61;100024.41;7396066;19;20015;-68
2022/09/16 00:13:50;;;;;;;5.88;1.02;;;;;;;10.80;88.53;100014.81;7395781;19;20019;-68
2022/09/16 00:16:23;;;;;;;3.13;1.08;;;;;;;10.81;88.39;100021.78;7395882;19;20015;-68
2022/09/16 00:18:56;;;;;;;2.85;1.13;;;;;;;10.82;88.46;100022.66;7395091;19;20022;-68
2022/09/16 00:21:26;;;;;;;2.95;1.05;;;;;;;10.82;88.29;100025.28;7395369;19;20028;-69
2022/09/16 00:23:54;;;;;;;2.55;1.00;;;;;;;10.81;88.69;100027.03;7393790;19;20015;-69
2022/09/16 00:26:29;;;;;;;3.47;1.27;;;;;;;10.79;88.59;100028.84;7395575;19;20078;-69
2022/09/16 00:28:58;;;;;;;3.20;1.40;;;;;;;10.78;88.68;100026.28;7393994;19;20015;-69
2022/09/16 00:31:29;;;;;;;2.25;0.85;;;;;;;10.76;88.72;100028.97;7395473;19;20418;-69
2022/09/16 00:33:57;;;;;;;2.00;1.20;;;;;;;10.74;88.94;100022.91;7394190;19;20031;-69
2022/09/16 00:36:26;;;;;;;3.47;1.10;;;;;;;10.72;89.00;100029.97;7394875;19;20516;-68
2022/09/16 00:38:56;;;;;;;3.35;1.20;;;;;;;10.67;89.27;100029.28;7394156;19;20026;-68
2022/09/16 00:41:26;;;;;;;2.25;1.27;;;;;;;10.66;89.00;100032.81;7394191;19;20013;-69
2022/09/16 00:43:58;;;;;;;3.30;1.17;;;;;;;10.63;89.34;100027.66;7392948;19;20536;-69
2022/09/16 00:46:34;;;;;;;4.97;1.40;;;;;;;10.61;89.43;100032.94;7395505;19;20035;-69
2022/09/16 00:49:07;;;;;;;2.70;1.35;;;;;;;10.57;89.66;100033.97;7393524;19;20484;-69
2022/09/16 00:51:36;;;;;;;4.97;1.60;;;;;;;10.55;89.80;100031.41;7392933;19;20484;-69
2022/09/16 00:54:08;;;;;;;6.35;1.92;;;;;;;10.52;89.96;100033.28;7394554;19;20014;-69
2022/09/16 00:56:40;;;;;;;7.57;1.92;;;;;;;10.52;89.94;100031.50;7395013;19;20023;-69
2022/09/16 00:59:12;;;;;;;3.25;1.80;;;;;;;10.52;89.77;100033.28;7393168;19;20480;-69
2022/09/16 01:01:45;;;;;;;6.53;1.90;;;;;;;10.49;89.76;100030.72;7395180;19;20026;-68
2022/09/16 01:04:19;;;;;;;8.45;2.13;;;;;;;10.48;90.09;100034.28;7392545;19;20497;-69
2022/09/16 01:06:48;;;;;;;6.32;2.35;;;;;;;10.47;90.00;100035.19;7395074;19;20081;-69
2022/09/16 01:09:17;;;;;;;5.93;2.10;;;;;;;10.44;90.34;100030.91;7392952;19;20039;-69
2022/09/16 01:11:45;;;;;;;2.72;1.90;;;;;;;10.44;90.53;100030.91;7394538;19;20031;-69
2022/09/16 01:17:07;;;;;;;5.40;1.80;;;;;;;10.44;90.64;100038.78;7394464;19;20342;-69
2022/09/16 01:20:06;;;;;;;5.15;2.15;;;;;;;10.45;90.75;100034.38;7394881;19;20042;-69
2022/09/16 01:22:52;;;;;;;4.43;1.90;;;;;;;10.45;90.46;100029.13;7399084;19;20018;-69
2022/09/16 01:25:30;;;;;;;4.60;1.98;;;;;;;10.46;90.61;100041.34;7401866;19;20035;-69
2022/09/16 01:28:33;;;;;;;5.28;1.42;;;;;;;10.46;90.68;100029.06;7399585;19;20031;-69
2022/09/16 01:31:17;;;;;;;3.58;1.60;;;;;;;10.47;90.54;100032.56;7398582;19;20011;-69
2022/09/16 01:33:53;;;;;;;5.47;2.08;;;;;;;10.46;90.48;100039.56;7400963;19;20014;-69
2022/09/16 01:36:42;;;;;;;4.50;1.85;;;;;;;10.47;90.43;100037.81;7401571;19;20019;-69
2022/09/16 01:39:27;;;;;;;5.00;1.58;;;;;;;10.46;90.28;100036.94;7398787;19;20031;-69
2022/09/16 01:42:13;;;;;;;4.90;1.52;;;;;;;10.45;90.25;100035.25;7401396;19;20031;-69
2022/09/16 01:44:49;;;;;;;5.00;1.42;;;;;;;10.45;90.63;100044.84;7400497;19;20462;-69
2022/09/16 01:47:26;;;;;;;4.78;1.83;;;;;;;10.44;90.40;100046.63;7401115;19;20010;-69
2022/09/16 01:50:02;;;;;;;3.42;1.67;;;;;;;10.43;90.43;100039.66;7397732;19;20011;-69
2022/09/16 01:52:40;;;;;;;2.83;1.80;;;;;;;10.42;90.45;100037.94;7400280;19;20540;-69
2022/09/16 01:55:11;;;;;;;5.95;1.70;;;;;;;10.41;90.57;100039.72;7400197;19;20031;-69
2022/09/16 01:57:50;;;;;;;2.80;1.95;;;;;;;10.39;90.77;100038.91;7400290;19;20377;-69
2022/09/16 02:00:19;;;;;;;6.57;1.55;;;;;;;10.37;90.40;100032.00;7400796;19;20007;-69
2022/09/16 02:02:55;;;;;;;3.53;1.77;;;;;;;10.37;90.84;100037.25;7397783;19;20035;-69
2022/09/16 02:05:28;;;;;;;4.15;1.48;;;;;;;10.37;90.51;100032.00;7400268;19;20031;-69
2022/09/16 02:08:03;;;;;;;7.10;1.80;;;;;;;10.36;90.63;100038.16;7399687;19;20497;-69
2022/09/16 02:10:36;;;;;;;4.82;1.42;;;;;;;10.34;90.70;100034.69;7400513;19;20027;-69
2022/09/16 02:13:10;;;;;;;4.20;1.58;;;;;;;10.31;90.71;100026.91;7400229;19;20039;-69
2022/09/16 02:15:43;;;;;;;4.97;1.92;;;;;;;10.31;90.81;100032.16;7400320;19;20018;-69
2022/09/16 02:18:19;;;;;;;6.85;1.70;;;;;;;10.30;90.88;100019.94;7399319;19;20023;-69
2022/09/16 02:20:50;;;;;;;2.78;1.20;;;;;;;10.28;90.86;100020.00;7400248;19;20023;-69
2022/09/16 02:23:24;;;;;;;5.57;1.60;;;;;;;10.27;91.10;100028.78;7399996;19;20019;-70
2022/09/16 02:25:56;;;;;;;5.07;1.85;;;;;;;10.25;91.09;100022.75;7399658;19;20019;-69
2022/09/16 02:28:31;;;;;;;6.15;1.95;;;;;;;10.24;91.18;100026.25;7396706;19;20014;-69
2022/09/16 02:31:03;;;;;;;5.30;1.67;;;;;;;10.22;91.16;100020.19;7396546;19;20446;-68
2022/09/16 02:33:38;;;;;;;5.47;2.53;;;;;;;10.20;91.00;100022.03;7398851;19;20010;-69
2022/09/16 02:36:10;;;;;;;5.63;1.58;;;;;;;10.20;91.01;100016.78;7398584;19;20019;-68
2022/09/16 02:38:43;;;;;;;5.68;1.70;;;;;;;10.20;91.15;100014.16;7396771;19;20488;-69
2022/09/16 02:41:13;;;;;;;5.47;1.40;;;;;;;10.17;91.22;100015.09;7398682;19;20024;-69
2022/09/16 02:43:43;;;;;;;5.28;1.65;;;;;;;10.17;91.06;100020.34;7398313;19;20014;-69
2022/09/16 02:46:17;;;;;;;5.40;1.77;;;;;;;10.15;91.37;100016.94;7398748;19;20014;-69
2022/09/16 02:48:59;;;;;;;4.53;1.38;;;;;;;10.15;91.38;100018.66;7396824;19;20014;-70
2022/09/16 02:51:35;;;;;;;5.43;1.83;;;;;;;10.14;91.15;100023.06;7398395;19;20488;-68
2022/09/16 02:54:08;;;;;;;5.60;2.00;;;;;;;10.11;91.38;100026.66;7398202;19;20029;-67
2022/09/16 02:56:40;;;;;;;3.28;1.40;;;;;;;10.12;91.16;100032.72;7398788;19;20020;-69
2022/09/16 02:59:12;;;;;;;4.70;1.42;;;;;;;10.09;91.18;100032.84;7397087;19;20015;-69
2022/09/16 03:01:43;;;;;;;4.65;1.52;;;;;;;10.08;91.35;100028.50;7398541;19;20031;-68
2022/09/16 03:04:16;;;;;;;6.20;1.85;;;;;;;10.05;91.53;100036.47;7395885;19;20014;-68
2022/09/16 03:06:45;;;;;;;5.40;1.30;;;;;;;10.06;91.36;100030.31;7398053;19;20079;-69
2022/09/16 03:09:16;;;;;;;5.18;1.67;;;;;;;10.06;91.40;100023.31;7397291;19;20082;-68
2022/09/16 03:12:04;;;;;;;5.00;1.83;;;;;;;10.05;91.45;100029.44;7397672;19;20498;-68
2022/09/16 03:15:01;;;;;;;4.68;1.45;;;;;;;10.05;91.39;100029.44;7398323;19;20036;-68
2022/09/16 03:17:42;;;;;;;7.97;1.73;;;;;;;10.05;91.48;100029.44;7396296;19;20021;-68
2022/09/16 03:20:19;;;;;;;5.90;1.65;;;;;;;10.04;91.47;100030.34;7398175;19;20015;-69
2022/09/16 03:22:57;;;;;;;5.25;1.58;;;;;;;10.04;91.40;100034.75;7398061;19;20022;-68
2022/09/16 03:25:39;;;;;;;6.18;1.45;;;;;;;10.04;91.55;100034.75;7397334;19;20018;-69
2022/09/16 03:28:12;;;;;;;4.55;1.65;;;;;;;10.04;91.44;100029.50;7396602;19;20015;-68
2022/09/16 03:30:51;;;;;;;3.00;1.30;;;;;;;10.04;91.45;100025.13;7397069;19;20013;-68
2022/09/16 03:33:25;;;;;;;7.25;1.60;;;;;;;10.05;91.41;100021.59;7396096;19;20031;-69
2022/09/16 03:36:02;;;;;;;10.35;2.25;;;;;;;10.04;91.41;100027.72;7397293;19;20022;-69
2022/09/16 03:38:31;;;;;;;7.18;2.38;;;;;;;10.06;91.44;100022.44;7396213;19;20022;-69
2022/09/16 03:41:00;;;;;;;4.97;1.33;;;;;;;10.04;91.42;100022.50;7397072;19;20022;-69
2022/09/16 03:43:29;;;;;;;4.78;1.92;;;;;;;10.05;91.15;100026.84;7395215;19;20022;-69
2022/09/16 03:45:57;;;;;;;3.72;1.77;;;;;;;10.05;91.28;100026.84;7395977;19;20078;-68
2022/09/16 03:48:26;;;;;;;5.18;2.13;;;;;;;10.04;91.31;100026.88;7395840;19;20035;-68
2022/09/16 03:50:57;;;;;;;7.10;1.63;;;;;;;10.05;91.28;100031.22;7397520;19;20461;-68
2022/09/16 03:53:25;;;;;;;5.78;1.60;;;;;;;10.05;91.24;100020.75;7396733;19;20018;-68
2022/09/16 03:55:54;;;;;;;3.55;1.30;;;;;;;10.04;91.32;100027.72;7394533;19;20023;-68
2022/09/16 03:58:22;;;;;;;6.18;1.65;;;;;;;10.04;91.38;100029.50;7395701;19;20019;-68
2022/09/16 04:00:52;;;;;;;5.95;1.77;;;;;;;10.03;91.25;100030.41;7393941;19;20488;-67
2022/09/16 04:03:21;;;;;;;6.68;1.90;;;;;;;10.03;91.38;100023.38;7394507;19;20022;-68
2022/09/16 04:05:57;;;;;;;7.18;1.55;;;;;;;10.03;91.34;100014.69;7395874;19;20431;-68
2022/09/16 04:08:25;;;;;;;4.57;1.60;;;;;;;10.01;91.34;100025.22;7395510;19;20032;-68
2022/09/16 04:10:58;;;;;;;5.40;1.85;;;;;;;10.01;91.28;100021.72;7393708;19;20035;-68
2022/09/16 04:13:27;;;;;;;5.63;1.75;;;;;;;10.00;91.32;100017.41;7393494;19;20351;-68
2022/09/16 04:15:55;;;;;;;4.43;1.58;;;;;;;9.98;91.35;100016.59;7395551;19;20497;-69
2022/09/16 04:18:24;;;;;;;2.55;1.45;;;;;;;9.98;91.43;100019.22;7394319;19;20363;-69
2022/09/16 04:20:52;;;;;;;4.57;1.52;;;;;;;9.98;91.34;100014.81;7393249;19;20015;-69
2022/09/16 04:23:25;;;;;;;6.68;1.70;;;;;;;9.91;91.29;100001.06;7395279;19;20035;-69
2022/09/16 04:25:57;;;;;;;3.35;1.33;;;;;;;9.94;91.54;100018.44;7395928;19;20019;-70
2022/09/16 04:28:26;;;;;;;4.55;1.42;;;;;;;9.92;91.31;100015.88;7393472;19;20426;-69
2022/09/16 04:30:55;;;;;;;4.57;1.45;;;;;;;9.92;91.37;100015.88;7393296;19;20015;-68
2022/09/16 04:33:23;;;;;;;6.13;1.77;;;;;;;9.91;91.38;100014.16;7395565;19;20018;-68
2022/09/16 04:35:52;;;;;;;4.57;1.23;;;;;;;9.90;91.30;100016.84;7393375;19;20088;-69
2022/09/16 04:38:29;;;;;;;5.18;1.70;;;;;;;9.90;91.37;100016.84;7394335;19;20026;-69
2022/09/16 04:41:02;;;;;;;3.97;1.65;;;;;;;9.88;91.39;100011.66;7394122;19;20512;-69
2022/09/16 04:43:31;;;;;;;7.45;1.63;;;;;;;9.88;91.47;100002.91;7394646;19;20011;-69
2022/09/16 04:45:59;;;;;;;5.38;2.00;;;;;;;9.87;91.41;100003.81;7394372;19;20031;-70
2022/09/16 04:48:29;;;;;;;6.45;2.15;;;;;;;9.86;91.49;100016.06;7393703;19;20026;-69
2022/09/16 04:51:04;;;;;;;5.75;2.15;;;;;;;9.86;91.38;100010.81;7394778;19;20018;-70
2022/09/16 04:53:36;;;;;;;3.92;1.50;;;;;;;9.85;91.25;100003.88;7395151;19;20022;-70
2022/09/16 04:56:06;;;;;;;4.25;1.73;;;;;;;9.84;91.41;100006.53;7401710;19;20018;-68
2022/09/16 04:58:35;;;;;;;5.10;1.60;;;;;;;9.84;91.26;100004.75;7399457;19;20477;-69
2022/09/16 05:01:11;;;;;;;5.47;1.60;;;;;;;9.84;91.16;100015.25;7397618;19;20015;-68
2022/09/16 05:03:40;;;;;;;3.20;1.50;;;;;;;9.83;91.31;100007.44;7398494;19;20018;-68
2022/09/16 05:06:11;;;;;;;5.78;1.65;;;;;;;9.81;91.19;100004.88;7401870;19;20014;-68
2022/09/16 05:08:42;;;;;;;8.68;3.00;;;;;;;9.81;91.38;100004.88;7397641;19;20023;-68
2022/09/16 05:11:13;;;;;;;4.68;1.52;;;;;;;9.83;91.33;100017.91;7398931;19;20015;-68
2022/09/16 05:13:42;;;;;;;4.45;1.88;;;;;;;9.81;91.34;100015.34;7400795;19;20022;-68
2022/09/16 05:16:12;;;;;;;10.13;2.70;;;;;;;9.80;91.24;100015.41;7400942;19;20461;-69
2022/09/16 05:18:42;;;;;;;7.88;3.03;;;;;;;9.81;91.18;100011.84;7398760;19;20015;-69
2022/09/16 05:21:13;;;;;;;4.70;2.55;;;;;;;9.79;91.27;100011.91;7400751;19;20022;-69
2022/09/16 05:23:45;;;;;;;4.30;2.10;;;;;;;9.77;91.34;100003.25;7399927;19;20035;-68
2022/09/16 05:26:15;;;;;;;5.28;2.25;;;;;;;9.80;91.20;100010.16;7400568;19;20438;-68
2022/09/16 05:28:44;;;;;;;10.32;2.70;;;;;;;9.81;91.19;100019.72;7397989;19;20010;-67
2022/09/16 05:31:14;;;;;;;6.70;2.63;;;;;;;9.80;91.17;100016.25;7400938;19;20031;-68
2022/09/16 05:33:44;;;;;;;7.05;2.28;;;;;;;9.84;91.09;100011.78;7400264;19;20015;-67
2022/09/16 05:36:15;;;;;;;5.75;3.20;;;;;;;9.84;91.16;100010.00;7398624;19;20083;-68
2022/09/16 05:38:46;;;;;;;4.50;2.40;;;;;;;9.84;91.15;100012.63;7398971;19;20039;-68
2022/09/16 05:41:15;;;;;;;6.18;3.08;;;;;;;9.85;91.22;100009.09;7399937;19;20023;-67
2022/09/16 05:43:44;;;;;;;6.80;2.92;;;;;;;9.88;91.13;100006.41;7399806;19;20018;-67
2022/09/16 05:46:20;;;;;;;5.63;2.17;;;;;;;9.87;91.16;100007.31;7397726;19;20035;-69
2022/09/16 05:48:48;;;;;;;7.93;2.22;;;;;;;9.92;91.04;100007.13;7399072;19;20426;-68
2022/09/16 05:51:18;;;;;;;4.22;2.33;;;;;;;9.94;90.95;100018.44;7400210;19;20023;-68
2022/09/16 05:53:57;;;;;;;5.05;1.88;;;;;;;9.95;90.81;100004.44;7400159;19;20399;-68
2022/09/16 05:56:28;;;;;;;5.50;2.03;;;;;;;9.99;90.80;100002.59;7397991;19;20466;-69
2022/09/16 05:58:59;;;;;;;6.93;2.25;;;;;;;10.03;90.65;100017.31;7398404;19;20018;-69
2022/09/16 06:01:29;;;;;;;7.43;2.50;;;;;;;10.06;90.70;100015.44;7400699;19;20063;-69
2022/09/16 06:03:58;;;;;;;8.98;2.08;;;;;;;10.09;90.58;100010.09;7399501;19;20048;-69
2022/09/16 06:06:29;;;;;;;6.10;1.90;;;;;;;10.14;90.24;100017.81;7398904;19;20015;-70
2022/09/16 06:09:01;;;;;;;5.28;2.03;;;;;;;10.20;90.18;100019.41;7396921;19;20387;-70
2022/09/16 06:11:30;;;;;;;4.28;2.28;;;;;;;10.26;90.11;100024.44;7400057;19;20015;-70
2022/09/16 06:14:00;;;;;;;7.40;2.90;;;;;;;10.32;90.02;100021.63;7399875;19;20022;-69
2022/09/16 06:16:31;;;;;;;6.18;1.90;;;;;;;10.40;89.78;100024.91;7400098;19;20038;-71
2022/09/16 06:19:01;;;;;;;6.35;2.10;;;;;;;10.48;89.33;100024.63;7398129;19;20048;-69
2022/09/16 06:21:30;;;;;;;6.50;1.80;;;;;;;10.56;88.89;100020.00;7398467;19;20414;-71
2022/09/16 06:24:02;;;;;;;3.05;1.83;;;;;;;10.64;88.62;100016.25;7399296;19;20074;-70
2022/09/16 06:26:30;;;;;;;5.05;1.80;;;;;;;10.69;87.70;100015.22;7398837;19;20513;-69
2022/09/16 06:28:59;;;;;;;3.50;1.98;;;;;;;10.74;87.67;100018.53;7396708;19;20034;-69
2022/09/16 06:31:29;;;;;;;5.55;2.35;;;;;;;10.79;87.22;100020.97;7398440;19;20031;-70
2022/09/16 06:33:59;;;;;;;3.85;2.15;;;;;;;10.85;86.64;100028.63;7399124;19;20039;-72
2022/09/16 06:36:29;;;;;;;4.28;2.20;;;;;;;10.92;86.97;100016.19;7399871;19;20026;-70
2022/09/16 06:39:01;;;;;;;5.95;2.17;;;;;;;10.99;86.84;100008.94;7396088;19;20103;-69
2022/09/16 06:41:29;;;;;;;3.67;2.05;;;;;;;11.02;84.96;100024.56;7398183;19;20373;-71
2022/09/16 06:43:58;;;;;;;3.65;2.20;;;;;;;11.05;86.06;100012.19;7398434;19;20019;-68
2022/09/16 06:46:29;;;;;;;5.75;2.00;;;;;;;11.12;85.78;100020.72;7398456;19;20018;-67
2022/09/16 06:48:59;;;;;;;5.13;1.60;;;;;;;11.18;85.91;100017.88;7397061;19;20430;-68
2022/09/16 06:51:28;;;;;;;6.93;2.78;;;;;;;11.27;85.46;100005.31;7395938;19;20026;-67
2022/09/16 06:54:04;;;;;;;4.40;1.75;;;;;;;11.33;83.29;100019.09;7396540;19;20018;-68
2022/09/16 06:56:34;;;;;;;6.45;1.80;;;;;;;11.43;84.50;100005.63;7398929;19;20014;-67
2022/09/16 06:59:03;;;;;;;4.30;1.40;;;;;;;11.53;83.96;100007.00;7395839;19;20438;-69
2022/09/16 07:01:32;;;;;;;5.75;1.85;;;;;;;11.60;83.73;100015.50;7397380;19;20518;-68
2022/09/16 07:04:05;;;;;;;2.80;1.73;;;;;;;11.67;82.36;100025.72;7397788;19;20018;-67
2022/09/16 07:06:34;;;;;;;6.15;1.98;;;;;;;11.72;81.88;100020.28;7398426;19;20011;-68
2022/09/16 07:09:05;;;;;;;2.53;1.65;;;;;;;11.75;82.24;100017.53;7396053;19;20023;-68
2022/09/16 07:11:34;;;;;;;4.75;1.85;;;;;;;11.79;81.82;100021.78;7397880;19;20034;-67
2022/09/16 07:14:03;;;;;;;4.88;2.00;;;;;;;11.80;80.34;100015.59;7398216;19;20031;-68
2022/09/16 07:16:32;;;;;;;3.78;2.22;;;;;;;11.82;80.90;100016.38;7395724;19;20376;-68
2022/09/16 07:19:01;;;;;;;3.67;2.22;;;;;;;11.85;81.78;100016.28;7395400;19;20036;-68
2022/09/16 07:21:30;;;;;;;5.20;2.97;;;;;;;11.88;81.58;100013.53;7397520;19;20022;-67
2022/09/16 07:24:00;;;;;;;5.65;3.33;;;;;;;11.92;82.00;100005.50;7397101;19;20015;-68
2022/09/16 07:26:33;;;;;;;5.82;2.38;;;;;;;11.94;81.41;99998.44;7394553;19;20032;-68
2022/09/16 07:29:05;;;;;;;7.88;3.88;;;;;;;11.96;81.62;100017.66;7394606;19;20021;-68
2022/09/16 07:31:36;;;;;;;4.95;3.00;;;;;;;11.96;80.96;100013.25;7395913;19;20138;-68
2022/09/16 07:34:06;;;;;;;6.10;2.83;;;;;;;11.95;80.39;100014.13;7394810;19;20387;-70
2022/09/16 07:36:37;;;;;;;6.35;3.33;;;;;;;11.97;79.62;100028.13;7394609;19;20039;-68
2022/09/16 07:39:06;;;;;;;3.95;2.50;;;;;;;12.00;80.26;100021.88;7394846;19;20477;-70
2022/09/16 07:41:40;;;;;;;3.42;2.55;;;;;;;12.03;80.31;100011.22;7396419;19;20023;-67
2022/09/16 07:44:09;;;;;;;6.07;2.45;;;;;;;12.06;80.07;100016.38;7394650;19;20074;-68
2022/09/16 07:46:38;;;;;;;3.33;2.53;;;;;;;12.08;80.37;100017.19;7394493;19;20023;-68
2022/09/16 07:49:10;;;;;;;2.92;2.60;;;;;;;12.11;80.35;100013.59;7393618;19;20022;-68
2022/09/16 07:51:39;;;;;;;5.45;2.60;;;;;;;12.10;79.84;100017.97;7394919;19;20023;-67
2022/09/16 07:54:10;;;;;;;4.63;2.72;;;;;;;12.14;79.90;100014.28;7394074;19;20018;-67
2022/09/16 07:56:42;;;;;;;7.85;2.45;;;;;;;12.14;79.65;100022.19;7393730;19;20359;-68
2022/09/16 07:59:14;;;;;;;5.22;2.60;;;;;;;12.15;79.02;100028.31;7394116;19;20010;-68
2022/09/16 08:01:42;;;;;;;4.70;2.30;;;;;;;12.19;79.78;100024.63;7394351;19;20014;-68
2022/09/16 08:04:11;;;;;;;5.18;2.72;;;;;;;12.24;78.51;100024.47;7396322;19;20423;-68
2022/09/16 08:06:41;;;;;;;5.93;2.30;;;;;;;12.29;77.75;100035.66;7393633;19;20109;-68
2022/09/16 08:09:10;;;;;;;5.32;2.33;;;;;;;12.35;78.02;100030.16;7394914;19;20018;-65
2022/09/16 08:11:41;;;;;;;2.92;2.05;;;;;;;12.44;77.94;100024.50;7393774;19;20015;-66
2022/09/16 08:14:09;;;;;;;5.45;2.15;;;;;;;12.54;78.01;100025.81;7395490;19;20023;-65
2022/09/16 08:16:38;;;;;;;6.10;2.08;;;;;;;12.67;77.70;100020.06;7393756;19;20014;-66
2022/09/16 08:19:07;;;;;;;5.82;2.00;;;;;;;12.77;76.86;100020.53;7394263;19;20026;-66
2022/09/16 08:21:35;;;;;;;2.25;1.88;;;;;;;12.82;74.04;100023.81;7393530;19;20027;-66
2022/09/16 08:24:04;;;;;;;6.32;2.10;;;;;;;12.89;75.83;100017.38;7394384;19;20010;-65
2022/09/16 08:26:32;;;;;;;5.50;2.47;;;;;;;12.94;74.90;100012.78;7393370;19;20014;-65
2022/09/16 08:29:03;;;;;;;8.32;2.67;;;;;;;13.00;74.61;100016.91;7392995;19;20098;-66
2022/09/16 08:31:32;;;;;;;3.60;1.67;;;;;;;13.05;73.12;100022.81;7394657;19;20014;-65
2022/09/16 08:34:00;;;;;;;4.75;1.42;;;;;;;13.08;74.05;100022.72;7395059;19;20043;-65
2022/09/16 08:36:29;;;;;;;5.28;1.48;;;;;;;13.12;73.58;100020.81;7394812;19;20022;-64
2022/09/16 08:38:58;;;;;;;3.97;1.30;;;;;;;13.11;71.38;100019.94;7393732;19;20027;-65
2022/09/16 08:41:36;;;;;;;5.25;2.00;;;;;;;13.11;70.62;100032.25;7394462;19;20019;-68
2022/09/16 08:44:16;;;;;;;2.95;1.25;;;;;;;13.12;71.19;100024.28;7393465;19;20039;-66
2022/09/16 08:46:52;;;;;;;3.83;1.17;;;;;;;13.11;70.00;100025.19;7392603;19;20488;-66
2022/09/16 08:49:28;;;;;;;4.22;1.45;;;;;;;13.16;71.26;100010.03;7393364;19;20040;-66
2022/09/16 08:51:58;;;;;;;4.45;1.45;;;;;;;13.25;70.63;100010.56;7392447;19;20098;-66
2022/09/16 08:54:32;;;;;;;3.55;1.27;;;;;;;13.31;70.24;100023.47;7394298;19;20023;-65
2022/09/16 08:57:04;;;;;;;2.67;1.40;;;;;;;13.39;70.53;100020.53;7395100;19;20027;-66
2022/09/16 08:59:42;;;;;;;3.85;1.00;;;;;;;13.45;68.27;100039.53;7392614;19;20028;-66
2022/09/16 09:02:33;;;;;;;3.67;1.10;;;;;;;13.50;68.78;100016.47;7394359;19;20014;-66
2022/09/16 09:05:03;;;;;;;1.55;0.93;;;;;;;13.57;70.56;100018.81;7394540;19;20015;-65
2022/09/16 09:07:45;;;;;;;3.63;1.10;;;;;;;13.61;68.28;100017.75;7392180;19;20032;-65
2022/09/16 09:10:23;;;;;;;3.47;1.02;;;;;;;13.60;68.16;100021.34;7392721;19;20146;-66
2022/09/16 09:12:59;;;;;;;2.15;1.15;;;;;;;13.62;68.34;100032.66;7392725;19;20025;-66
2022/09/16 09:15:43;;;;;;;6.07;1.10;;;;;;;13.63;67.55;100024.66;7393355;19;20476;-66
2022/09/16 09:18:34;;;;;;;5.00;1.10;;;;;;;13.64;67.30;100022.91;7393096;19;20099;-66
2022/09/16 09:21:15;;;;;;;4.45;1.30;;;;;;;13.65;67.45;100030.72;7393407;19;20521;-67
2022/09/16 09:24:11;;;;;;;2.85;1.08;;;;;;;13.71;67.36;100012.91;7394233;19;20031;-67
2022/09/16 09:26:47;;;;;;;3.10;1.30;;;;;;;13.76;67.97;100022.34;7392216;19;20022;-65
2022/09/16 09:29:39;;;;;;;3.92;1.38;;;;;;;13.82;67.61;100011.47;7390739;19;20078;-67
2022/09/16 09:32:21;;;;;;;5.15;1.35;;;;;;;13.88;68.40;100009.50;7391495;19;20042;-66
2022/09/16 09:35:02;;;;;;;3.05;1.98;;;;;;;13.91;67.68;100009.34;7390554;19;20484;-67
2022/09/16 09:38:20;;;;;;;3.72;0.82;;;;;;;13.91;67.40;100006.72;7392342;19;20477;-66
2022/09/16 09:40:55;;;;;;;3.85;0.85;;;;;;;13.89;66.58;100000.63;7394287;19;20036;-67
2022/09/16 09:43:30;;;;;;;5.32;0.93;;;;;;;13.91;66.92;99997.00;7400327;19;20027;-66
2022/09/16 09:46:05;;;;;;;3.03;1.10;;;;;;;13.93;65.63;100005.72;7399299;19;20098;-67
2022/09/16 09:48:41;;;;;;;3.83;0.80;;;;;;;13.97;66.24;99998.50;7398123;19;20035;-67
2022/09/16 09:51:18;;;;;;;3.40;1.23;;;;;;;13.98;63.15;100013.41;7401089;19;20022;-66
2022/09/16 09:53:52;;;;;;;2.85;0.90;;;;;;;13.95;63.96;99989.81;7400970;19;20018;-66
2022/09/16 09:56:26;;;;;;;2.35;0.60;;;;;;;13.98;65.45;100000.22;7398553;19;20018;-66
2022/09/16 09:58:58;;;;;;;;;;;;;;;13.97;62.81;99987.97;7399838;19;20026;-66
2022/09/16 10:01:27;;;;;;;4.95;0.93;;;;;;;14.00;63.54;99983.41;7399274;19;19926;-72
2022/09/16 10:03:59;;;;;;;6.13;0.98;;;;;;;14.07;64.04;99980.47;7399454;19;20431;-70
2022/09/16 10:06:31;;;;;;;6.05;1.00;;;;;;;14.11;64.50;99985.50;7396934;19;20018;-68
2022/09/16 10:09:00;;;;;;;4.60;0.90;;;;;;;14.15;63.59;99992.34;7398584;19;20011;-69
2022/09/16 10:11:32;;;;;;;3.67;1.40;;;;;;;14.18;62.43;99975.53;7400211;19;20022;-69
2022/09/16 10:14:04;;;;;;;6.20;1.20;;;;;;;14.25;63.73;99986.63;7397327;19;20026;-71
2022/09/16 10:16:37;;;;;;;3.00;1.08;;;;;;;14.32;62.53;99956.38;7399188;19;20502;-67
2022/09/16 10:19:16;;;;;;;5.25;0.77;;;;;;;14.39;58.94;99973.59;7397582;19;20123;-70
2022/09/16 10:21:49;;;;;;;4.65;1.38;;;;;;;14.47;61.17;99960.88;7399592;19;20126;-69
2022/09/16 10:24:31;;;;;;;3.85;0.75;;;;;;;14.55;59.06;99972.84;7396944;19;20413;-69
2022/09/16 10:27:21;;;;;;;4.75;1.13;;;;;;;14.58;57.82;99973.50;7396598;19;20014;-69
2022/09/16 10:30:03;;;;;;;5.43;0.88;;;;;;;14.59;59.75;99979.66;7395194;19;20027;-68
2022/09/16 10:32:35;;;;;;;2.67;1.00;;;;;;;14.57;58.41;99971.81;7397821;19;20023;-68
2022/09/16 10:35:11;;;;;;;2.53;0.70;;;;;;;14.57;59.18;99977.09;7397840;19;20568;-68
2022/09/16 10:37:39;;;;;;;2.33;1.05;;;;;;;14.57;60.48;99981.50;7397407;19;20031;-67
2022/09/16 10:40:18;;;;;;;4.82;1.00;;;;;;;14.52;58.10;99978.25;7396102;19;20026;-68
2022/09/16 10:42:49;;;;;;;3.53;0.70;;;;;;;14.52;60.60;99973.84;7398504;19;20015;-69
2022/09/16 10:45:26;;;;;;;4.85;0.88;;;;;;;14.49;59.43;99973.97;7396082;19;20499;-67
2022/09/16 10:47:58;;;;;;;3.85;1.15;;;;;;;14.46;59.04;99982.06;7397960;19;20018;-67
2022/09/16 10:50:29;;;;;;;4.93;0.88;;;;;;;14.44;60.18;99982.13;7397509;19;20032;-66
2022/09/16 10:52:58;;;;;;;1.92;0.70;;;;;;;14.44;60.16;99990.03;7396454;19;20078;-68
2022/09/16 10:55:31;;;;;;;4.32;0.98;;;;;;;14.48;60.64;99967.00;7398322;19;20023;-67
2022/09/16 10:58:10;;;;;;;3.13;0.75;;;;;;;14.53;59.18;99964.97;7397863;19;20014;-67
2022/09/16 11:00:50;;;;;;;3.10;0.82;;;;;;;14.57;58.54;99976.22;7398141;19;20018;-68
2022/09/16 11:03:49;;;;;;;6.70;1.00;;;;;;;14.63;58.99;99960.97;7398283;19;20019;-68
2022/09/16 11:06:35;;;;;;;5.78;0.68;;;;;;;14.70;58.05;99953.59;7395171;19;20018;-68
2022/09/16 11:09:11;;;;;;;1.85;0.70;;;;;;;14.83;58.33;99948.53;7395208;19;20484;-69
2022/09/16 11:11:53;;;;;;;4.50;1.20;;;;;;;14.97;58.19;99943.38;7397220;19;20018;-67
2022/09/16 11:14:35;;;;;;;4.38;1.02;;;;;;;15.13;55.50;99947.84;7397792;19;20376;-68
2022/09/16 11:17:15;;;;;;;5.88;0.93;;;;;;;15.26;54.72;99950.69;7395720;19;20022;-67
2022/09/16 11:19:58;;;;;;;7.43;0.93;;;;;;;15.33;52.59;99949.41;7393996;19;20484;-69
2022/09/16 11:22:38;;;;;;;3.85;0.82;;;;;;;15.40;51.38;99934.91;7396257;19;20022;-67
2022/09/16 11:25:28;;;;;;;2.75;1.23;;;;;;;15.46;51.06;99942.50;7396116;19;20035;-68
2022/09/16 11:28:10;;;;;;;4.05;0.80;;;;;;;15.52;52.62;99943.09;7393181;19;20388;-66
2022/09/16 11:30:48;;;;;;;3.80;0.65;;;;;;;15.55;52.22;99940.31;7395927;19;20039;-67
2022/09/16 11:33:28;;;;;;;1.85;0.50;;;;;;;15.62;51.06;99942.53;7395714;19;20027;-67
2022/09/16 11:36:20;;;;;;;3.40;0.60;;;;;;;15.69;50.86;99945.69;7394457;19;20109;-67
2022/09/16 11:39:03;;;;;;;4.03;1.10;;;;;;;15.74;51.21;99930.41;7393385;19;20027;-66
2022/09/16 11:41:37;;;;;;;3.28;0.85;;;;;;;15.74;50.14;99938.34;7393999;19;20015;-67
2022/09/16 11:44:36;;;;;;;4.57;0.75;;;;;;;15.73;50.15;99936.66;7395438;19;20090;-68
2022/09/16 11:47:18;;;;;;;5.70;1.23;;;;;;;15.79;50.91;99952.16;7394043;19;20026;-67
2022/09/16 11:50:07;;;;;;;2.28;0.63;;;;;;;15.80;49.78;99942.44;7394532;19;20026;-67
2022/09/16 11:53:04;;;;;;;2.25;0.60;;;;;;;15.82;50.83;99929.16;7395319;19;20362;-68
2022/09/16 11:55:47;;;;;;;1.85;0.52;;;;;;;15.84;50.83;99922.00;7395719;19;20027;-69
2022/09/16 11:58:28;;;;;;;4.30;0.90;;;;;;;15.87;49.88;99922.69;7395602;19;20025;-66
2022/09/16 12:01:01;;;;;;;4.70;0.50;;;;;;;15.95;50.36;99928.38;7393825;19;20014;-67
2022/09/16 12:03:37;;;;;;;1.83;0.40;;;;;;;16.04;49.46;99921.69;7396320;19;20026;-68